Time;durP1;ratioP1;P1;durP2;ratioP2;P2;SDS_P1;SDS_P2;PMS_P1;PMS_P2;Temp;Humidity;BMP_temperature;BMP_pressure;BME280_temperature;BME280_humidity;BME280_pressure;Samples;Min_cycle;Max_cycle;Signal;HPM_P1;HPM_P2
2021/01/26 00:00:06;;;;;;;21.15;14.80;;;0.80;99.90;;;;;;5054437;28;20227;-81
2021/01/26 00:02:32;;;;;;;27.35;14.48;;;0.90;99.90;;;;;;5059358;28;20325;-81
2021/01/26 00:04:58;;;;;;;29.58;16.50;;;0.90;99.90;;;;;;5057297;28;20629;-81
2021/01/26 00:07:25;;;;;;;24.40;15.55;;;0.90;99.90;;;;;;5055562;28;20623;-80
2021/01/26 00:09:51;;;;;;;25.98;15.38;;;0.90;99.90;;;;;;5057037;28;20701;-80
2021/01/26 00:12:18;;;;;;;28.50;15.38;;;0.90;99.90;;;;;;5065557;28;20210;-81
2021/01/26 00:14:44;;;;;;;31.27;17.52;;;0.80;99.90;;;;;;5065568;28;20336;-80
2021/01/26 00:17:11;;;;;;;25.73;14.75;;;0.80;99.90;;;;;;5066616;28;20252;-80
2021/01/26 00:19:38;;;;;;;29.55;16.35;;;0.90;99.90;;;;;;5070816;28;20230;-80
2021/01/26 00:22:04;;;;;;;29.20;16.23;;;0.90;99.90;;;;;;5071939;28;20333;-80
2021/01/26 00:24:31;;;;;;;27.25;15.52;;;0.90;99.90;;;;;;5074219;28;20241;-81
2021/01/26 00:26:57;;;;;;;25.10;14.30;;;0.90;99.80;;;;;;5074943;28;20195;-80
2021/01/26 00:29:23;;;;;;;30.20;16.38;;;0.80;99.50;;;;;;5074500;28;20243;-80
2021/01/26 00:31:50;;;;;;;29.17;16.70;;;0.90;99.40;;;;;;5058375;28;20265;-80
2021/01/26 00:34:17;;;;;;;28.63;15.80;;;0.90;99.10;;;;;;5065030;28;20308;-80
2021/01/26 00:36:44;;;;;;;27.55;16.08;;;0.90;98.80;;;;;;5065923;28;20253;-80
2021/01/26 00:39:10;;;;;;;35.25;18.00;;;0.80;98.70;;;;;;5056313;28;20210;-80
2021/01/26 00:41:36;;;;;;;30.30;16.00;;;0.90;98.80;;;;;;5054038;28;20261;-80
2021/01/26 00:44:03;;;;;;;28.85;16.30;;;0.80;98.40;;;;;;5055317;28;20234;-80
2021/01/26 00:46:29;;;;;;;33.92;17.35;;;0.80;98.20;;;;;;5055221;28;20207;-80
2021/01/26 00:48:56;;;;;;;28.83;16.77;;;0.80;98.20;;;;;;5054723;28;20225;-80
2021/01/26 00:51:23;;;;;;;29.42;17.27;;;0.80;97.80;;;;;;5054608;28;20273;-80
2021/01/26 00:53:49;;;;;;;29.95;16.25;;;0.80;97.70;;;;;;5056435;28;20211;-80
2021/01/26 00:56:16;;;;;;;31.77;16.60;;;0.80;98.00;;;;;;5056826;28;20309;-81
2021/01/26 00:58:42;;;;;;;30.17;16.00;;;0.80;97.40;;;;;;5066164;28;20214;-80
2021/01/26 01:01:09;;;;;;;25.58;15.00;;;0.80;97.20;;;;;;5073014;28;20257;-81
2021/01/26 01:03:35;;;;;;;27.77;16.60;;;0.80;96.80;;;;;;5058681;28;20270;-80
2021/01/26 01:06:02;;;;;;;29.38;16.80;;;0.80;96.50;;;;;;5053879;28;20234;-80
2021/01/26 01:08:30;;;;;;;30.63;15.70;;;0.80;96.30;;;;;;5053698;28;20661;-80
2021/01/26 01:10:56;;;;;;;23.00;13.63;;;0.80;95.90;;;;;;5054109;28;20757;-79
2021/01/26 01:13:23;;;;;;;31.83;15.82;;;0.90;95.30;;;;;;5058855;28;20203;-79
2021/01/26 01:15:49;;;;;;;32.28;15.20;;;0.90;95.20;;;;;;5057805;28;20218;-80
2021/01/26 01:18:17;;;;;;;30.30;16.65;;;0.90;94.70;;;;;;5056537;28;20656;-80
2021/01/26 01:20:43;;;;;;;26.25;15.27;;;0.90;94.50;;;;;;5056152;28;20635;-80
2021/01/26 01:23:10;;;;;;;29.42;16.80;;;1.10;94.00;;;;;;5057094;28;20664;-80
2021/01/26 01:25:37;;;;;;;27.27;15.10;;;1.00;93.40;;;;;;5055762;28;20297;-80
2021/01/26 01:28:04;;;;;;;24.38;14.35;;;1.10;92.90;;;;;;5055784;28;20214;-81
2021/01/26 01:30:33;;;;;;;27.83;16.10;;;1.00;92.50;;;;;;5057368;28;20368;-80
2021/01/26 01:33:00;;;;;;;27.42;14.82;;;1.10;92.50;;;;;;5057452;28;20222;-80
2021/01/26 01:35:27;;;;;;;27.52;14.73;;;1.00;92.40;;;;;;5056358;28;20234;-79
2021/01/26 01:37:53;;;;;;;29.92;15.60;;;1.00;92.50;;;;;;5056541;28;20705;-80
2021/01/26 01:40:23;;;;;;;25.10;14.05;;;1.00;92.80;;;;;;5054978;28;20254;-80
2021/01/26 01:42:50;;;;;;;27.70;15.30;;;1.10;92.70;;;;;;5054923;28;20306;-80
2021/01/26 01:45:19;;;;;;;26.73;14.93;;;1.00;92.70;;;;;;5055319;28;20194;-80
2021/01/26 01:47:50;;;;;;;26.75;16.10;;;0.90;92.80;;;;;;5056035;28;20290;-80
2021/01/26 01:50:21;;;;;;;26.23;14.73;;;1.00;93.00;;;;;;5055078;28;20309;-79
2021/01/26 01:52:54;;;;;;;28.25;14.60;;;1.00;92.90;;;;;;5055947;28;20643;-80
2021/01/26 01:55:23;;;;;;;34.08;15.50;;;1.00;92.90;;;;;;5065242;28;20194;-81
2021/01/26 01:57:54;;;;;;;28.00;14.98;;;1.00;92.60;;;;;;5056110;28;20290;-80
2021/01/26 02:00:21;;;;;;;29.20;15.32;;;1.00;92.70;;;;;;5069402;28;20256;-79
2021/01/26 02:02:54;;;;;;;28.55;15.35;;;0.90;92.70;;;;;;5078756;28;20187;-80
2021/01/26 02:05:22;;;;;;;29.35;15.57;;;0.90;92.90;;;;;;5078703;28;20191;-80
2021/01/26 02:07:50;;;;;;;32.33;14.45;;;0.90;93.10;;;;;;5078386;28;20190;-80
2021/01/26 02:10:17;;;;;;;31.08;14.77;;;0.90;93.20;;;;;;5078081;28;20245;-80
2021/01/26 02:12:43;;;;;;;27.33;15.18;;;1.00;93.10;;;;;;5078488;28;20217;-80
2021/01/26 02:15:12;;;;;;;23.60;13.27;;;1.00;93.00;;;;;;5077698;28;20190;-80
2021/01/26 02:17:58;;;;;;;27.20;14.05;;;1.00;93.00;;;;;;5070054;28;20225;-80
2021/01/26 02:21:02;;;;;;;27.13;14.25;;;0.90;92.80;;;;;;5070033;28;20235;-80
2021/01/26 02:24:17;;;;;;;31.08;14.57;;;0.90;92.90;;;;;;5072922;28;20183;-79
2021/01/26 02:27:26;;;;;;;24.65;13.45;;;0.80;93.00;;;;;;5075096;28;20198;-80
2021/01/26 02:30:28;;;;;;;29.48;13.10;;;0.80;93.30;;;;;;5065242;28;20242;-79
2021/01/26 02:33:24;;;;;;;26.77;14.57;;;0.80;93.50;;;;;;5069846;28;20251;-79
2021/01/26 02:36:17;;;;;;;29.02;14.38;;;0.80;93.40;;;;;;5069686;28;20210;-80
2021/01/26 02:39:21;;;;;;;21.27;13.38;;;0.90;93.10;;;;;;5066207;28;20454;-80
2021/01/26 02:41:56;;;;;;;23.52;14.13;;;0.90;93.10;;;;;;5068974;28;20217;-77
2021/01/26 02:44:30;;;;;;;24.30;14.00;;;0.90;92.80;;;;;;5069177;28;20182;-79
2021/01/26 02:53:40;;;;;;;25.52;12.48;;;1.10;91.90;;;;;;5035753;22;20224;-79
2021/01/26 02:56:15;;;;;;;21.75;13.65;;;1.10;91.80;;;;;;5086261;28;20221;-80
2021/01/26 02:58:47;;;;;;;22.33;12.38;;;1.20;91.30;;;;;;5078579;28;20209;-79
2021/01/26 03:01:15;;;;;;;22.10;11.52;;;1.20;90.60;;;;;;5082166;28;20237;-79
2021/01/26 03:03:47;;;;;;;22.25;12.75;;;1.30;90.00;;;;;;5089462;28;20210;-79
2021/01/26 03:06:17;;;;;;;24.75;12.20;;;1.30;88.70;;;;;;5084965;28;20185;-78
2021/01/26 03:08:49;;;;;;;25.17;12.30;;;1.30;87.60;;;;;;5086723;28;20202;-80
2021/01/26 03:11:20;;;;;;;27.73;12.93;;;1.30;87.00;;;;;;5079454;28;20260;-80
2021/01/26 03:37:25;;;;;;;17.75;10.27;;;1.50;82.60;;;;;;5093057;28;20260;-80
2021/01/26 03:39:52;;;;;;;19.17;10.50;;;1.50;82.60;;;;;;5089995;28;20229;-79
2021/01/26 03:42:19;;;;;;;21.55;10.93;;;1.50;82.50;;;;;;5086705;28;20221;-80
2021/01/26 03:44:47;;;;;;;17.13;9.85;;;1.60;81.80;;;;;;5084124;28;20229;-80
2021/01/26 03:47:24;;;;;;;19.00;10.70;;;1.50;81.40;;;;;;5079987;28;20230;-80
2021/01/26 03:50:13;;;;;;;26.23;10.93;;;1.50;81.00;;;;;;5074431;28;20217;-80
2021/01/26 03:53:15;;;;;;;17.95;9.93;;;1.50;80.90;;;;;;5064460;28;20205;-79
2021/01/26 03:55:48;;;;;;;19.67;8.90;;;1.60;79.80;;;;;;5075311;28;20624;-80
2021/01/26 03:58:34;;;;;;;16.73;8.98;;;1.70;78.90;;;;;;5086230;28;20225;-79
2021/01/26 04:01:08;;;;;;;18.08;9.40;;;1.70;78.60;;;;;;5083883;28;20221;-79
2021/01/26 04:03:47;;;;;;;17.02;9.57;;;1.70;78.60;;;;;;5087070;28;20278;-80
2021/01/26 04:06:23;;;;;;;13.27;8.65;;;1.70;77.60;;;;;;5087884;28;20206;-79
2021/01/26 04:08:54;;;;;;;12.40;7.57;;;1.70;77.60;;;;;;5088989;28;20194;-80
2021/01/26 04:11:23;;;;;;;16.38;8.50;;;1.70;77.20;;;;;;5088439;28;20225;-79
2021/01/26 04:14:00;;;;;;;14.02;8.23;;;1.70;77.10;;;;;;5088668;28;20228;-79
2021/01/26 04:16:32;;;;;;;13.18;8.10;;;1.80;76.60;;;;;;5087930;28;20225;-80
2021/01/26 04:19:02;;;;;;;17.75;8.25;;;1.80;76.30;;;;;;5090169;28;20193;-80
2021/01/26 04:21:32;;;;;;;15.60;8.30;;;1.80;76.10;;;;;;5087541;28;20256;-79
2021/01/26 04:24:00;;;;;;;14.00;8.15;;;1.80;75.00;;;;;;5085713;28;20201;-79
2021/01/26 04:26:29;;;;;;;12.27;7.43;;;1.80;74.50;;;;;;5085297;28;20201;-79
2021/01/26 04:28:56;;;;;;;11.48;7.45;;;1.80;74.50;;;;;;5084408;28;20216;-79
2021/01/26 04:31:23;;;;;;;11.85;7.28;;;1.80;74.50;;;;;;5081602;28;20283;-79
2021/01/26 04:33:50;;;;;;;11.57;7.57;;;1.80;74.00;;;;;;5076496;28;20209;-79
2021/01/26 04:36:21;;;;;;;14.50;7.90;;;1.90;72.90;;;;;;5076472;28;20226;-79
2021/01/26 04:38:48;;;;;;;12.18;7.35;;;1.90;72.80;;;;;;5077916;28;20224;-79
2021/01/26 04:41:25;;;;;;;11.77;7.40;;;1.80;72.30;;;;;;5085433;28;20214;-80
2021/01/26 04:44:02;;;;;;;11.00;7.05;;;1.90;72.10;;;;;;5086408;28;20209;-79
2021/01/26 04:46:34;;;;;;;11.55;6.93;;;1.90;72.00;;;;;;5087578;28;20189;-78
2021/01/26 04:49:08;;;;;;;12.98;7.50;;;1.90;71.60;;;;;;5091406;28;20217;-79
2021/01/26 04:51:43;;;;;;;12.25;6.75;;;1.90;71.00;;;;;;5090915;28;20294;-80
2021/01/26 04:54:37;;;;;;;10.10;7.30;;;1.90;71.20;;;;;;5091243;28;20232;-80
2021/01/26 04:57:20;;;;;;;14.55;6.72;;;1.90;70.70;;;;;;5080772;28;20611;-80
2021/01/26 05:00:16;;;;;;;11.35;6.55;;;1.90;71.10;;;;;;5079796;28;20230;-79
2021/01/26 05:03:03;;;;;;;10.32;6.63;;;1.90;70.50;;;;;;5080772;28;20210;-80
2021/01/26 05:05:34;;;;;;;12.43;7.15;;;1.90;70.50;;;;;;5086774;28;20231;-79
2021/01/26 05:08:07;;;;;;;10.23;6.65;;;1.90;71.30;;;;;;5084814;28;20209;-80
2021/01/26 05:10:38;;;;;;;8.93;6.07;;;1.90;71.00;;;;;;5078347;28;20260;-80
2021/01/26 05:13:12;;;;;;;8.00;5.85;;;1.90;70.90;;;;;;5082257;28;20209;-78
2021/01/26 05:15:42;;;;;;;11.23;6.90;;;1.90;71.30;;;;;;5082464;28;20220;-80
2021/01/26 05:18:14;;;;;;;12.05;6.53;;;1.90;70.40;;;;;;5080372;28;20268;-80
2021/01/26 05:20:44;;;;;;;14.07;6.18;;;1.90;70.40;;;;;;5077531;28;20719;-78
2021/01/26 05:23:14;;;;;;;8.80;5.70;;;1.90;71.00;;;;;;5080146;28;20210;-80
2021/01/26 05:25:40;;;;;;;9.27;6.40;;;2.00;70.50;;;;;;5080945;28;20214;-79
2021/01/26 05:28:09;;;;;;;9.00;5.60;;;2.00;70.50;;;;;;5079752;28;20599;-78
2021/01/26 05:30:37;;;;;;;10.75;6.13;;;1.90;70.40;;;;;;5077942;28;20221;-78
2021/01/26 05:33:08;;;;;;;8.95;6.43;;;1.90;70.40;;;;;;5079155;28;20206;-79
2021/01/26 05:35:36;;;;;;;9.38;6.43;;;2.00;70.20;;;;;;5085493;28;20190;-79
2021/01/26 05:38:03;;;;;;;9.00;6.00;;;1.90;70.30;;;;;;5088674;28;20229;-78
2021/01/26 05:40:33;;;;;;;8.90;6.03;;;1.90;70.40;;;;;;5089411;28;20229;-78
2021/01/26 05:45:51;;;;;;;11.15;6.43;;;2.00;69.40;;;;;;5094711;28;20204;-78
2021/01/26 05:48:21;;;;;;;8.35;5.60;;;2.00;69.80;;;;;;5094263;28;20212;-77
2021/01/26 05:50:48;;;;;;;10.82;5.82;;;2.00;69.00;;;;;;5092525;28;20245;-77
2021/01/26 05:53:19;;;;;;;8.35;5.47;;;2.00;68.70;;;;;;5085561;28;20202;-77
2021/01/26 05:55:57;;;;;;;7.65;5.15;;;2.10;68.40;;;;;;5081583;28;20685;-76
2021/01/26 05:58:27;;;;;;;11.65;6.05;;;2.00;68.30;;;;;;5081253;28;20189;-77
2021/01/26 06:04:12;;;;;;;8.40;5.75;;;2.10;67.90;;;;;;5099969;23;20230;-77
2021/01/26 06:06:50;;;;;;;10.00;5.28;;;2.10;67.60;;;;;;5093940;28;20209;-77
2021/01/26 06:15:05;;;;;;;9.48;4.95;;;2.10;67.90;;;;;;5096258;22;20221;-80
2021/01/26 06:17:33;;;;;;;8.07;5.53;;;2.10;67.70;;;;;;5088884;28;20249;-79
2021/01/26 06:20:15;;;;;;;8.13;5.07;;;2.10;67.80;;;;;;5076065;28;20622;-81
2021/01/26 06:22:41;;;;;;;8.75;5.47;;;2.10;68.10;;;;;;5063999;28;20187;-80
2021/01/26 06:25:15;;;;;;;9.60;6.00;;;2.10;67.60;;;;;;5065265;28;20198;-79
2021/01/26 06:27:51;;;;;;;9.85;4.70;;;2.10;67.40;;;;;;5060575;28;20278;-79
2021/01/26 06:30:29;;;;;;;6.75;4.80;;;2.20;67.50;;;;;;5061293;28;20305;-81
2021/01/26 06:33:27;;;;;;;13.20;6.22;;;2.20;67.20;;;;;;5057724;28;20210;-80
2021/01/26 06:36:06;;;;;;;8.43;4.70;;;2.20;67.00;;;;;;5061083;28;20222;-79
2021/01/26 06:39:00;;;;;;;8.20;4.90;;;2.10;67.10;;;;;;5064526;28;20213;-78
2021/01/26 06:41:46;;;;;;;8.93;5.22;;;2.10;67.30;;;;;;5067244;28;20226;-80
2021/01/26 06:44:35;;;;;;;6.70;4.63;;;2.20;68.40;;;;;;5062924;28;20589;-80
2021/01/26 06:47:18;;;;;;;8.38;4.63;;;2.20;68.60;;;;;;5061787;28;20206;-81
2021/01/26 06:49:54;;;;;;;10.13;5.63;;;2.20;68.90;;;;;;5068429;28;20249;-80
2021/01/26 06:52:43;;;;;;;8.65;5.05;;;2.20;69.00;;;;;;5065363;28;20210;-80
2021/01/26 06:55:26;;;;;;;11.70;5.47;;;2.20;68.80;;;;;;5054603;28;20206;-80
2021/01/26 06:58:21;;;;;;;10.25;5.35;;;2.20;68.70;;;;;;5053668;28;20207;-79
2021/01/26 07:01:06;;;;;;;10.25;4.93;;;2.20;68.60;;;;;;5053168;28;20269;-79
2021/01/26 07:04:29;;;;;;;11.10;5.45;;;2.20;69.10;;;;;;5055125;28;20195;-79
2021/01/26 07:07:37;;;;;;;8.48;5.40;;;2.20;69.40;;;;;;5044998;28;20231;-81
2021/01/26 07:10:15;;;;;;;9.68;5.15;;;2.30;69.50;;;;;;5041538;28;20254;-80
2021/01/26 07:13:20;;;;;;;13.43;6.10;;;2.30;69.90;;;;;;5039985;28;20195;-82
2021/01/26 07:16:25;;;;;;;11.57;5.85;;;2.30;71.30;;;;;;5040975;28;20226;-81
2021/01/26 07:19:27;;;;;;;11.45;5.40;;;2.30;70.20;;;;;;4998771;28;20200;-82
2021/01/26 07:22:24;;;;;;;10.60;6.30;;;2.30;69.90;;;;;;5036082;28;20199;-81
2021/01/26 07:25:01;;;;;;;10.65;6.30;;;2.40;70.20;;;;;;5045582;28;20271;-82
2021/01/26 07:27:53;;;;;;;14.35;6.57;;;2.30;70.50;;;;;;5048754;28;20210;-77
2021/01/26 07:30:22;;;;;;;10.60;5.25;;;2.40;70.40;;;;;;5056883;28;20258;-76
2021/01/26 07:33:01;;;;;;;17.80;6.72;;;2.40;70.10;;;;;;5056658;28;20195;-79
2021/01/26 07:35:35;;;;;;;10.35;6.38;;;2.40;70.80;;;;;;5051577;28;20199;-80
2021/01/26 07:38:11;;;;;;;8.10;5.03;;;2.40;70.70;;;;;;5049946;28;20258;-81
2021/01/26 07:40:48;;;;;;;12.82;5.90;;;2.30;70.70;;;;;;5041608;28;20234;-81
2021/01/26 07:43:31;;;;;;;9.23;5.68;;;2.30;70.70;;;;;;5023104;28;20559;-81
2021/01/26 07:46:05;;;;;;;8.88;5.15;;;2.40;70.80;;;;;;5040644;28;20553;-80
2021/01/26 07:48:40;;;;;;;7.22;4.93;;;2.40;70.80;;;;;;5039618;28;20195;-80
2021/01/26 07:51:14;;;;;;;12.38;5.50;;;2.40;70.80;;;;;;5042788;28;20219;-80
2021/01/26 07:53:56;;;;;;;8.23;5.35;;;2.40;70.80;;;;;;5039811;28;20190;-81
2021/01/26 07:56:33;;;;;;;8.93;5.75;;;2.40;70.80;;;;;;5041027;28;20207;-80
2021/01/26 07:59:11;;;;;;;11.15;6.28;;;2.50;70.30;;;;;;5052862;28;20234;-81
2021/01/26 08:01:46;;;;;;;7.03;5.28;;;2.40;70.00;;;;;;5039433;28;20234;-81
2021/01/26 08:04:18;;;;;;;10.00;5.78;;;2.50;70.00;;;;;;5041212;28;20214;-81
2021/01/26 08:06:57;;;;;;;9.50;6.68;;;2.40;69.90;;;;;;5044319;28;20222;-81
2021/01/26 08:09:47;;;;;;;10.57;6.10;;;2.50;70.30;;;;;;5046717;28;20631;-83
2021/01/26 08:12:19;;;;;;;8.35;5.35;;;2.50;69.90;;;;;;5035160;28;20202;-81
2021/01/26 08:14:52;;;;;;;12.82;5.45;;;2.50;69.50;;;;;;5052743;28;20274;-82
2021/01/26 08:17:29;;;;;;;11.57;5.57;;;2.60;68.90;;;;;;5055348;28;20234;-78
2021/01/26 08:20:03;;;;;;;13.38;6.20;;;2.50;68.40;;;;;;5056791;28;20231;-79
2021/01/26 08:29:55;;;;;;;13.60;5.68;;;2.50;68.30;;;;;;5056152;28;20194;-78
2021/01/26 08:32:44;;;;;;;14.13;5.53;;;2.60;68.20;;;;;;5060414;28;20183;-77
2021/01/26 08:35:13;;;;;;;16.77;5.65;;;2.60;67.50;;;;;;5023354;28;20191;-76
2021/01/26 08:37:50;;;;;;;8.95;5.10;;;2.60;67.20;;;;;;5057767;28;20233;-77
2021/01/26 08:40:21;;;;;;;9.15;5.72;;;2.60;66.70;;;;;;5059761;28;20227;-77
2021/01/26 08:43:02;;;;;;;8.52;5.28;;;2.70;66.70;;;;;;5059971;28;20207;-78
2021/01/26 08:45:54;;;;;;;8.35;4.85;;;2.70;66.50;;;;;;5060183;28;20211;-79
2021/01/26 08:48:30;;;;;;;5.45;4.40;;;2.60;66.40;;;;;;5041057;28;20312;-78
2021/01/26 08:51:07;;;;;;;8.63;5.50;;;2.70;65.70;;;;;;5059668;28;20218;-78
2021/01/26 08:53:37;;;;;;;12.05;6.13;;;2.70;65.20;;;;;;5059517;28;20234;-78
2021/01/26 08:56:12;;;;;;;10.30;5.45;;;2.60;65.50;;;;;;5019719;28;20242;-80
2021/01/26 08:58:41;;;;;;;9.77;4.97;;;2.70;65.50;;;;;;5020637;28;20187;-80
2021/01/26 09:01:11;;;;;;;9.38;5.47;;;2.80;65.20;;;;;;5040480;28;20231;-80
2021/01/26 09:03:40;;;;;;;10.68;4.70;;;2.80;65.20;;;;;;5041555;28;20314;-81
2021/01/26 09:06:13;;;;;;;10.30;5.43;;;2.80;64.60;;;;;;5044332;28;20265;-79
2021/01/26 09:08:55;;;;;;;8.90;6.57;;;2.80;64.50;;;;;;5059478;28;20188;-79
2021/01/26 09:11:47;;;;;;;9.95;6.30;;;2.90;64.70;;;;;;5039740;28;20220;-79
2021/01/26 09:17:30;;;;;;;7.25;5.75;;;3.00;64.00;;;;;;4996403;28;20321;-79
2021/01/26 09:19:58;;;;;;;7.80;5.47;;;3.10;63.40;;;;;;4997525;28;20308;-78
2021/01/26 09:22:27;;;;;;;9.88;5.57;;;3.10;63.00;;;;;;4999223;28;20197;-78
2021/01/26 09:25:00;;;;;;;9.63;6.00;;;3.20;62.80;;;;;;4995277;28;20216;-80
2021/01/26 09:27:30;;;;;;;10.68;6.53;;;3.20;62.80;;;;;;4988948;28;20227;-79
2021/01/26 09:30:17;;;;;;;7.90;5.30;;;3.30;62.90;;;;;;4982752;28;20233;-80
2021/01/26 09:32:49;;;;;;;7.07;5.10;;;3.20;62.80;;;;;;4980827;28;20244;-80
2021/01/26 09:35:25;;;;;;;13.20;6.05;;;3.10;62.70;;;;;;4986811;28;20712;-81
2021/01/26 09:41:24;;;;;;;8.63;5.78;;;3.10;63.70;;;;;;4984019;28;20241;-81
2021/01/26 09:43:52;;;;;;;11.93;5.90;;;3.10;64.20;;;;;;4979594;28;20292;-80
2021/01/26 09:46:26;;;;;;;7.97;5.57;;;3.10;63.50;;;;;;4986031;28;20208;-81
2021/01/26 09:52:31;;;;;;;9.35;6.82;;;3.30;62.90;;;;;;5055364;23;20193;-80
2021/01/26 09:55:05;;;;;;;7.20;5.05;;;3.40;63.00;;;;;;5063787;28;20233;-79
2021/01/26 09:57:35;;;;;;;9.00;5.93;;;3.40;63.70;;;;;;5065736;28;20222;-78
2021/01/26 10:08:31;;;;;;;9.40;6.28;;;3.30;61.20;;;;;;5064313;28;20289;-79
2021/01/26 10:11:09;;;;;;;9.73;6.03;;;3.30;60.70;;;;;;5089091;28;20247;-80
2021/01/26 10:13:37;;;;;;;12.65;5.53;;;3.20;60.50;;;;;;5090196;28;20189;-78
2021/01/26 10:16:31;;;;;;;9.15;5.75;;;3.30;60.60;;;;;;5087793;28;20654;-80
2021/01/26 10:18:58;;;;;;;7.32;5.75;;;3.50;59.70;;;;;;5090170;28;20190;-78
2021/01/26 10:25:10;;;;;;;7.80;5.10;;;3.50;59.00;;;;;;4961095;28;20346;-81
2021/01/26 10:27:41;;;;;;;9.80;5.03;;;3.60;58.70;;;;;;4968962;29;20214;-82
2021/01/26 10:30:25;;;;;;;8.45;5.95;;;3.50;59.00;;;;;;4974895;28;20226;-81
2021/01/26 10:33:35;;;;;;;18.77;7.80;;;3.50;58.60;;;;;;4972630;28;20209;-80
2021/01/26 10:36:25;;;;;;;10.00;6.10;;;3.70;58.60;;;;;;4970992;28;20570;-82
2021/01/26 10:38:55;;;;;;;7.28;5.10;;;4.00;56.80;;;;;;4973583;28;20212;-80
2021/01/26 10:42:02;;;;;;;11.07;6.00;;;4.20;54.60;;;;;;4972818;28;20221;-80
2021/01/26 10:44:30;;;;;;;9.35;6.40;;;4.50;54.90;;;;;;4971252;28;20205;-80
2021/01/26 10:47:00;;;;;;;11.40;6.65;;;4.40;53.60;;;;;;4995721;28;20209;-81
2021/01/26 10:49:38;;;;;;;15.10;5.85;;;4.30;54.00;;;;;;4989411;28;20208;-80
2021/01/26 10:52:17;;;;;;;8.02;5.60;;;4.20;54.60;;;;;;5008604;28;20212;-81
2021/01/26 10:55:07;;;;;;;8.80;5.85;;;4.20;54.00;;;;;;4966460;28;20209;-79
2021/01/26 10:57:37;;;;;;;10.07;5.93;;;4.10;54.30;;;;;;5000804;28;20311;-81
2021/01/26 11:00:15;;;;;;;8.60;5.88;;;4.20;54.60;;;;;;4977674;28;20333;-81
2021/01/26 11:02:42;;;;;;;6.60;5.25;;;4.30;54.00;;;;;;4974252;28;20254;-81
2021/01/26 11:05:14;;;;;;;8.45;5.93;;;4.30;53.40;;;;;;4968599;28;20194;-81
2021/01/26 11:07:41;;;;;;;7.22;5.75;;;4.20;54.10;;;;;;4959499;28;20346;-80
2021/01/26 11:10:10;;;;;;;10.60;6.40;;;4.30;53.40;;;;;;4959471;28;20229;-81
2021/01/26 11:12:38;;;;;;;9.75;5.90;;;4.20;54.30;;;;;;4972402;28;20216;-80
2021/01/26 11:15:12;;;;;;;8.88;5.70;;;4.10;53.90;;;;;;5037862;28;20207;-80
2021/01/26 11:17:40;;;;;;;9.95;5.88;;;4.20;53.50;;;;;;5038569;28;20231;-80
2021/01/26 11:20:08;;;;;;;8.93;5.50;;;4.30;52.80;;;;;;5036369;28;20223;-80
2021/01/26 11:22:35;;;;;;;8.43;5.63;;;4.20;51.30;;;;;;5049435;28;20218;-78
2021/01/26 11:25:01;;;;;;;6.18;4.80;;;4.30;51.80;;;;;;5047143;28;20219;-82
2021/01/26 11:27:29;;;;;;;7.10;5.80;;;4.40;51.50;;;;;;5042974;28;20199;-83
2021/01/26 11:29:56;;;;;;;8.13;5.28;;;4.50;51.60;;;;;;5045898;28;20229;-77
2021/01/26 11:35:46;;;;;;;6.65;5.05;;;4.40;50.90;;;;;;5042022;28;20314;-78
2021/01/26 11:38:13;;;;;;;9.05;4.85;;;4.40;51.40;;;;;;5048712;28;20219;-81
2021/01/26 11:40:40;;;;;;;9.73;5.13;;;4.40;51.40;;;;;;5036741;28;20281;-80
2021/01/26 11:43:06;;;;;;;9.35;4.85;;;4.50;50.60;;;;;;5046935;28;20211;-77
2021/01/26 11:45:35;;;;;;;6.65;4.55;;;4.50;50.20;;;;;;5054216;28;20261;-82
2021/01/26 11:51:24;;;;;;;7.75;4.72;;;4.40;50.60;;;;;;5051063;23;20234;-81
2021/01/26 11:53:51;;;;;;;9.00;4.97;;;4.30;50.00;;;;;;5032311;28;20239;-80
2021/01/26 11:56:29;;;;;;;9.75;4.60;;;4.20;50.10;;;;;;5044877;28;20210;-78
2021/01/26 11:58:55;;;;;;;10.38;5.53;;;4.20;51.00;;;;;;5052635;28;20209;-80
2021/01/26 12:01:22;;;;;;;9.43;5.30;;;4.20;50.30;;;;;;5080361;28;20236;-79
2021/01/26 12:03:48;;;;;;;6.82;4.10;;;4.20;50.80;;;;;;5073738;28;20740;-80
2021/01/26 12:06:15;;;;;;;4.95;4.15;;;4.20;51.40;;;;;;5043506;28;20203;-81
2021/01/26 12:08:45;;;;;;;8.45;5.45;;;4.30;51.00;;;;;;5062273;28;20340;-80
2021/01/26 12:11:12;;;;;;;8.55;4.82;;;4.20;51.40;;;;;;5061054;28;20241;-80
2021/01/26 12:13:39;;;;;;;7.80;4.90;;;4.20;50.80;;;;;;5046672;28;20207;-80
2021/01/26 12:16:07;;;;;;;9.18;4.93;;;4.20;51.30;;;;;;5044772;28;20209;-80
2021/01/26 12:18:33;;;;;;;9.57;5.68;;;4.20;51.40;;;;;;5076710;28;20214;-80
2021/01/26 12:21:00;;;;;;;11.75;4.78;;;4.20;51.10;;;;;;5065569;28;20344;-80
2021/01/26 12:23:27;;;;;;;7.78;4.43;;;4.20;51.00;;;;;;5061993;28;20209;-81
2021/01/26 12:25:57;;;;;;;11.05;4.47;;;4.30;51.60;;;;;;5070444;28;20202;-81
2021/01/26 12:40:06;;;;;;;7.88;4.50;;;4.50;50.90;;;;;;5055917;28;20237;-78
2021/01/26 12:42:45;;;;;;;11.15;4.60;;;4.50;50.20;;;;;;5039759;28;20719;-78
2021/01/26 12:45:16;;;;;;;6.30;4.10;;;4.60;50.80;;;;;;5036009;28;20445;-79
2021/01/26 12:47:42;;;;;;;9.93;4.45;;;4.70;50.40;;;;;;5035820;28;20565;-79
2021/01/26 12:50:51;;;;;;;8.40;4.90;;;4.70;50.50;;;;;;5037108;28;20288;-77
2021/01/26 12:53:18;;;;;;;7.15;4.18;;;4.70;51.00;;;;;;5097372;23;20229;-81
2021/01/26 12:55:44;;;;;;;6.95;4.70;;;4.60;50.30;;;;;;5074425;28;20207;-79
2021/01/26 12:58:12;;;;;;;8.55;4.90;;;4.60;50.90;;;;;;5073687;28;20272;-81
2021/01/26 13:00:38;;;;;;;10.73;4.65;;;4.50;50.90;;;;;;5074721;28;20203;-79
2021/01/26 13:03:06;;;;;;;6.00;3.75;;;4.60;51.50;;;;;;5074476;28;20240;-81
2021/01/26 13:05:33;;;;;;;8.07;4.65;;;4.60;49.80;;;;;;5075094;28;20606;-80
2021/01/26 13:08:00;;;;;;;7.68;4.40;;;4.40;48.70;;;;;;5083483;28;20202;-79
2021/01/26 13:10:27;;;;;;;6.35;3.95;;;4.40;48.70;;;;;;5095423;28;20206;-79
2021/01/26 13:12:54;;;;;;;7.15;3.40;;;4.40;48.50;;;;;;5085223;28;20221;-81
2021/01/26 13:15:22;;;;;;;6.93;3.83;;;4.40;48.60;;;;;;5084336;28;20324;-81
2021/01/26 13:17:49;;;;;;;5.63;4.40;;;4.40;48.40;;;;;;5085708;28;20523;-81
2021/01/26 13:20:17;;;;;;;7.10;4.38;;;4.40;48.40;;;;;;5087233;28;20210;-81
2021/01/26 13:22:44;;;;;;;6.03;4.40;;;4.30;48.60;;;;;;5090322;28;20225;-78
2021/01/26 13:25:12;;;;;;;7.95;3.88;;;4.40;48.70;;;;;;5089064;28;20209;-81
2021/01/26 13:27:39;;;;;;;6.00;4.75;;;4.40;48.20;;;;;;5068999;28;20271;-81
2021/01/26 13:30:08;;;;;;;5.70;3.90;;;4.40;48.10;;;;;;5071709;28;20729;-82
2021/01/26 13:32:36;;;;;;;6.72;4.13;;;4.40;48.50;;;;;;5085300;28;20251;-83
2021/01/26 13:35:04;;;;;;;6.22;3.85;;;4.40;49.00;;;;;;5101329;28;20276;-82
2021/01/26 13:37:31;;;;;;;6.93;4.50;;;4.40;48.70;;;;;;5088945;28;20225;-81
2021/01/26 13:39:57;;;;;;;7.40;4.03;;;4.40;48.70;;;;;;5092411;28;20189;-83
2021/01/26 13:42:24;;;;;;;6.00;3.35;;;4.50;48.90;;;;;;5098284;28;20244;-82
2021/01/26 13:44:50;;;;;;;5.13;3.90;;;4.50;49.00;;;;;;5100188;28;20339;-79
2021/01/26 13:47:18;;;;;;;5.55;3.33;;;4.60;48.70;;;;;;5091442;28;20178;-81
2021/01/26 13:49:45;;;;;;;7.97;3.72;;;4.60;48.00;;;;;;5095989;28;20193;-81
2021/01/26 13:52:12;;;;;;;6.75;3.08;;;4.50;47.60;;;;;;5091887;28;20237;-80
2021/01/26 13:54:39;;;;;;;7.22;4.03;;;4.50;48.00;;;;;;5083926;28;20210;-81
2021/01/26 13:57:06;;;;;;;6.82;3.15;;;4.50;47.80;;;;;;5072505;28;20289;-79
2021/01/26 13:59:32;;;;;;;5.30;3.65;;;4.40;48.00;;;;;;5077563;28;20197;-80
2021/01/26 14:01:59;;;;;;;7.05;3.63;;;4.50;48.60;;;;;;5088540;28;20230;-81
2021/01/26 14:04:25;;;;;;;6.20;3.80;;;4.50;48.20;;;;;;5085743;28;20677;-80
2021/01/26 14:06:53;;;;;;;3.78;3.40;;;4.50;47.40;;;;;;5068033;28;20245;-80
2021/01/26 14:09:20;;;;;;;6.20;3.75;;;4.50;47.60;;;;;;5076636;28;20196;-79
2021/01/26 14:11:46;;;;;;;4.38;3.70;;;4.60;47.80;;;;;;5095260;28;20226;-81
2021/01/26 14:14:13;;;;;;;5.68;3.60;;;4.60;47.50;;;;;;5093993;28;20190;-81
2021/01/26 14:16:39;;;;;;;6.38;3.38;;;4.50;46.70;;;;;;5096209;28;20232;-79
2021/01/26 14:19:06;;;;;;;7.00;3.97;;;4.50;47.20;;;;;;5085218;28;20201;-80
2021/01/26 14:21:32;;;;;;;5.25;3.65;;;4.50;47.30;;;;;;5069186;28;20581;-80
2021/01/26 14:24:00;;;;;;;5.25;3.60;;;4.50;47.10;;;;;;5064315;28;20694;-80
2021/01/26 14:26:26;;;;;;;7.53;4.55;;;4.50;47.70;;;;;;5078821;28;20252;-80
2021/01/26 14:28:53;;;;;;;5.28;3.40;;;4.50;47.60;;;;;;5086778;28;20209;-81
2021/01/26 14:31:19;;;;;;;6.63;3.85;;;4.50;47.20;;;;;;5087143;28;20221;-80
2021/01/26 14:33:45;;;;;;;7.32;3.40;;;4.40;47.60;;;;;;5087711;28;20213;-80
2021/01/26 14:36:12;;;;;;;4.47;2.92;;;4.40;47.20;;;;;;5086431;28;20206;-80
2021/01/26 14:38:38;;;;;;;3.80;2.95;;;4.40;47.80;;;;;;5088105;28;20234;-81
2021/01/26 14:41:07;;;;;;;4.90;3.40;;;4.40;47.90;;;;;;5084620;28;20203;-82
2021/01/26 14:43:36;;;;;;;5.35;3.90;;;4.40;47.80;;;;;;5071930;28;20210;-82
2021/01/26 14:46:03;;;;;;;12.32;3.75;;;4.40;48.10;;;;;;5092257;28;20262;-81
2021/01/26 14:48:30;;;;;;;6.32;3.50;;;4.40;47.30;;;;;;5070185;28;20298;-82